Hovedside
METAR-TAF:

METAR-TAF

Lufthavner :

Bucureşti, Romania

Henri Coandă internasjonale lufthavn

breddegrad: 44-33N, lengdegrad: 026-06E, høyde over havet: 95 m

Gjeldene værobservasjon

Denne rapporten ble laget for 35 minutter siden, klokken 19:00 UTC
Vind 9 kt fra Vest
Temperatur 1°C
Luftfuktighet 69%
Trykk 1010 hPa
Sikt 10 km eller mer
ingen skyer under 1500 m og ingen bygeskyer

METAR: LROP 181900Z 27009KT CAVOK 01/M04 Q1010 R26L/19//95 R26R/19//95 NOSIG

Tid: 21:35 (19:35 UTC)

Varsel

Denne rapporten ble laget for 2 timer og 35 minutter siden, klokken 17:00 UTC
Varsel gyldig fra 18. klokken 18 UTC til 19. klokken 18 UTC
Vind 10 kt fra Vest
Sikt 10 km eller mer
ingen skyer under 1500 m og ingen bygeskyer
Midlertidig
fra 19. klokken 00 UTC til 19. klokken 05 UTC
Sikt: 5000 m
dis

TAF: LROP 181700Z 1818/1918 28010KT CAVOK TEMPO 1900/1905 5000 BR

Værobservasjoner og værvarsel for over 4000 flyplasser (METAR- og TAF-rapporter).

Tilgjengelige stasjoner er representert av de røde og gule prikkene på kartet.

Hold musepekeren over prikken for å se navnet på stasjonen.

Klikk så for å se værobservasjoner og -varsler.

For å forandre kartet kan du klikke på den grønne knappen med svart kryss for å zoome inn, på den grønne knappen med strek for å zoome ut, eller på de grønne pilene for å se tilstøtende kart.


METAR-TAF: